Time;durP1;ratioP1;P1;durP2;ratioP2;P2;SDS_P1;SDS_P2;PMS_P1;PMS_P2;Temp;Humidity;BMP_temperature;BMP_pressure;BME280_temperature;BME280_humidity;BME280_pressure;Samples;Min_cycle;Max_cycle;Signal;HPM_P1;HPM_P2
2023/05/17 00:01:45;;;;;;;7.63;1.30;;;;;;;;;;5051274;28;20549;-63
2023/05/17 00:04:11;;;;;;;9.50;1.67;;;;;;;;;;5047090;28;20025;-64
2023/05/17 00:06:36;;;;;;;6.90;1.58;;;;;;;;;;5052460;28;20100;-63
2023/05/17 00:09:02;;;;;;;5.70;1.77;;;;;;;;;;5032702;28;20021;-65
2023/05/17 00:11:27;;;;;;;5.47;2.08;;;;;;;;;;5052774;28;20032;-63
2023/05/17 00:13:52;;;;;;;6.03;1.80;;;;;;;;;;5050554;28;20505;-64
2023/05/17 00:16:17;;;;;;;5.80;1.38;;;;;;;;;;5051598;28;20096;-63
2023/05/17 00:18:43;;;;;;;5.78;1.65;;;;;;;;;;5033145;28;20043;-62
2023/05/17 00:21:08;;;;;;;8.52;2.20;;;;;;;;;;5050808;28;20049;-63
2023/05/17 00:23:33;;;;;;;5.40;1.58;;;;;;;;;;5049783;28;20088;-64
2023/05/17 00:25:58;;;;;;;5.78;1.98;;;;;;;;;;5050810;28;20032;-65
2023/05/17 00:28:23;;;;;;;5.18;1.65;;;;;;;;;;5055338;28;20028;-63
2023/05/17 00:30:49;;;;;;;11.02;2.83;;;;;;;;;;5053005;28;20498;-64
2023/05/17 00:33:14;;;;;;;6.32;1.50;;;;;;;;;;5050964;28;20596;-61
2023/05/17 00:35:39;;;;;;;9.80;1.50;;;;;;;;;;5049900;28;20494;-63
2023/05/17 00:38:04;;;;;;;6.32;1.65;;;;;;;;;;5032478;28;20504;-62
2023/05/17 00:40:30;;;;;;;11.63;2.13;;;;;;;;;;5050159;28;20066;-63
2023/05/17 00:42:55;;;;;;;2.45;1.27;;;;;;;;;;5054910;28;20023;-63
2023/05/17 00:45:20;;;;;;;5.28;1.60;;;;;;;;;;5064160;28;20036;-62
2023/05/17 00:47:45;;;;;;;12.93;2.17;;;;;;;;;;5050677;28;20135;-64
2023/05/17 00:50:11;;;;;;;7.03;1.67;;;;;;;;;;5049612;28;20032;-63
2023/05/17 00:52:36;;;;;;;3.50;1.50;;;;;;;;;;5049979;28;20017;-64
2023/05/17 00:55:02;;;;;;;7.10;1.83;;;;;;;;;;5049352;28;20029;-62
2023/05/17 00:57:28;;;;;;;6.38;2.50;;;;;;;;;;5050384;28;20014;-64
2023/05/17 00:59:54;;;;;;;6.75;1.60;;;;;;;;;;5050543;28;20479;-64
2023/05/17 01:02:19;;;;;;;8.13;1.60;;;;;;;;;;5060617;22;20105;-68
2023/05/17 01:04:45;;;;;;;4.32;1.80;;;;;;;;;;5015131;28;20124;-66
2023/05/17 01:07:10;;;;;;;8.45;1.60;;;;;;;;;;5049689;28;20021;-65
2023/05/17 01:09:36;;;;;;;8.35;1.25;;;;;;;;;;5049598;28;20021;-65
2023/05/17 01:12:14;;;;;;;3.72;1.30;;;;;;;;;;5061920;28;20111;-64
2023/05/17 01:14:53;;;;;;;8.93;1.83;;;;;;;;;;5069397;28;20040;-66
2023/05/17 01:17:26;;;;;;;6.65;1.30;;;;;;;;;;5070494;28;20016;-65
2023/05/17 01:20:07;;;;;;;4.60;1.42;;;;;;;;;;5069693;28;20020;-66
2023/05/17 01:22:45;;;;;;;8.15;1.52;;;;;;;;;;5069878;28;20385;-67
2023/05/17 01:25:14;;;;;;;8.77;1.73;;;;;;;;;;5069201;28;20020;-66
2023/05/17 01:27:41;;;;;;;5.65;1.38;;;;;;;;;;5070145;28;20024;-65
2023/05/17 01:30:09;;;;;;;7.45;1.50;;;;;;;;;;5079190;28;20036;-66
2023/05/17 01:32:35;;;;;;;5.43;1.35;;;;;;;;;;5070181;28;20024;-65
2023/05/17 01:35:02;;;;;;;6.07;1.30;;;;;;;;;;5069150;28;20107;-67
2023/05/17 01:37:27;;;;;;;6.15;1.33;;;;;;;;;;5069517;28;20134;-67
2023/05/17 01:39:53;;;;;;;4.97;1.38;;;;;;;;;;5069175;28;20047;-66
2023/05/17 01:42:23;;;;;;;12.00;1.70;;;;;;;;;;5072259;28;20020;-68
2023/05/17 01:44:51;;;;;;;8.85;1.80;;;;;;;;;;5076847;28;20078;-67
2023/05/17 01:47:36;;;;;;;6.43;1.55;;;;;;;;;;5051511;28;20481;-67
2023/05/17 01:50:02;;;;;;;5.53;1.55;;;;;;;;;;5068193;28;20044;-67
2023/05/17 01:52:33;;;;;;;8.23;1.90;;;;;;;;;;5069221;28;20100;-64
2023/05/17 01:55:05;;;;;;;8.68;1.73;;;;;;;;;;5068092;28;20016;-69
2023/05/17 01:57:32;;;;;;;6.53;1.52;;;;;;;;;;5069004;28;20036;-68
2023/05/17 01:59:59;;;;;;;4.90;1.52;;;;;;;;;;5069286;28;20490;-67
2023/05/17 02:02:24;;;;;;;8.60;2.08;;;;;;;;;;5069152;28;20111;-66
2023/05/17 02:04:50;;;;;;;9.45;1.85;;;;;;;;;;5068337;28;20108;-68
2023/05/17 02:07:15;;;;;;;3.88;1.52;;;;;;;;;;5068958;28;20017;-67
2023/05/17 02:09:40;;;;;;;7.70;2.38;;;;;;;;;;5068991;28;20024;-68
2023/05/17 02:12:06;;;;;;;9.32;1.50;;;;;;;;;;5069358;28;20032;-68
2023/05/17 02:14:31;;;;;;;7.95;1.92;;;;;;;;;;5068247;28;20021;-68
2023/05/17 02:16:57;;;;;;;8.57;1.73;;;;;;;;;;5069270;28;20017;-65
2023/05/17 02:19:22;;;;;;;11.40;1.92;;;;;;;;;;5068790;28;20032;-67
2023/05/17 02:21:47;;;;;;;7.70;1.73;;;;;;;;;;5072559;28;20016;-66
2023/05/17 02:24:12;;;;;;;11.93;2.15;;;;;;;;;;5053774;28;20020;-66
2023/05/17 02:26:41;;;;;;;12.88;2.72;;;;;;;;;;5073344;28;20017;-63
2023/05/17 02:29:06;;;;;;;5.53;2.15;;;;;;;;;;5082392;28;20023;-66
2023/05/17 02:31:32;;;;;;;7.45;2.03;;;;;;;;;;5073672;28;20112;-67
2023/05/17 02:33:57;;;;;;;9.52;1.70;;;;;;;;;;5072215;28;20100;-66
2023/05/17 02:36:22;;;;;;;4.38;2.05;;;;;;;;;;5073090;28;20024;-69
2023/05/17 02:38:47;;;;;;;5.63;2.00;;;;;;;;;;5072587;28;20020;-65
2023/05/17 02:41:13;;;;;;;9.45;2.15;;;;;;;;;;5057718;28;20140;-67
2023/05/17 02:43:38;;;;;;;8.38;1.88;;;;;;;;;;5084179;28;20020;-66
2023/05/17 02:46:03;;;;;;;9.77;2.22;;;;;;;;;;5073259;28;20021;-66
2023/05/17 02:48:28;;;;;;;4.68;1.80;;;;;;;;;;5072170;28;20101;-67
2023/05/17 02:50:54;;;;;;;5.70;2.63;;;;;;;;;;5057863;28;20050;-65
2023/05/17 02:53:19;;;;;;;10.68;2.35;;;;;;;;;;5071819;28;20170;-68
2023/05/17 02:55:44;;;;;;;11.35;2.40;;;;;;;;;;5072541;28;20055;-68
2023/05/17 02:58:10;;;;;;;11.55;2.28;;;;;;;;;;5072192;28;20025;-67
2023/05/17 03:00:35;;;;;;;5.70;2.25;;;;;;;;;;5072839;28;20054;-66
2023/05/17 03:03:00;;;;;;;11.13;2.50;;;;;;;;;;5065399;28;20033;-66
2023/05/17 03:05:26;;;;;;;9.07;2.17;;;;;;;;;;5071703;28;20017;-67
2023/05/17 03:07:51;;;;;;;9.68;2.17;;;;;;;;;;5071519;28;20094;-67
2023/05/17 03:10:16;;;;;;;12.05;3.10;;;;;;;;;;5067670;28;20024;-67
2023/05/17 03:12:42;;;;;;;10.63;2.70;;;;;;;;;;5071865;28;20024;-66
2023/05/17 03:15:07;;;;;;;10.90;2.45;;;;;;;;;;5071698;28;20051;-66
2023/05/17 03:17:32;;;;;;;9.05;2.53;;;;;;;;;;5072489;28;20391;-67
2023/05/17 03:19:57;;;;;;;9.55;2.35;;;;;;;;;;5072275;28;20036;-67
2023/05/17 03:22:23;;;;;;;15.23;3.03;;;;;;;;;;5071774;28;20092;-66
2023/05/17 03:24:48;;;;;;;5.15;1.88;;;;;;;;;;5070760;28;20028;-66
2023/05/17 03:27:13;;;;;;;9.05;2.42;;;;;;;;;;5072202;28;20027;-67
2023/05/17 03:29:38;;;;;;;9.38;2.40;;;;;;;;;;5080474;28;20113;-67
2023/05/17 03:32:04;;;;;;;15.38;2.67;;;;;;;;;;5071628;28;20389;-67
2023/05/17 03:34:29;;;;;;;10.27;3.20;;;;;;;;;;5071143;28;20375;-68
2023/05/17 03:36:54;;;;;;;10.38;2.88;;;;;;;;;;5071129;28;20017;-65
2023/05/17 03:39:19;;;;;;;11.18;2.10;;;;;;;;;;5053210;28;20025;-68
2023/05/17 03:41:45;;;;;;;8.88;2.40;;;;;;;;;;5074378;28;20018;-64
2023/05/17 03:44:10;;;;;;;8.55;2.75;;;;;;;;;;5062271;28;20021;-64
2023/05/17 03:46:35;;;;;;;10.07;2.30;;;;;;;;;;5071945;28;20017;-67
2023/05/17 03:49:00;;;;;;;8.10;2.22;;;;;;;;;;5070769;28;20070;-66
2023/05/17 03:51:26;;;;;;;15.18;2.67;;;;;;;;;;5070946;28;20362;-68
2023/05/17 03:53:56;;;;;;;14.05;3.22;;;;;;;;;;5070147;28;20601;-68
2023/05/17 03:56:22;;;;;;;4.53;1.95;;;;;;;;;;5071185;28;20241;-64
2023/05/17 03:58:47;;;;;;;15.15;2.90;;;;;;;;;;5071306;28;20122;-67
2023/05/17 04:01:12;;;;;;;13.70;2.88;;;;;;;;;;5073577;28;20020;-68
2023/05/17 04:03:38;;;;;;;5.05;2.35;;;;;;;;;;5074189;28;20582;-65
2023/05/17 04:06:05;;;;;;;10.27;2.60;;;;;;;;;;5072033;28;20498;-66
2023/05/17 04:08:30;;;;;;;9.60;2.75;;;;;;;;;;5069369;28;20028;-67
2023/05/17 04:10:56;;;;;;;11.98;3.03;;;;;;;;;;5070977;28;20089;-67
2023/05/17 04:13:21;;;;;;;7.53;2.75;;;;;;;;;;5070263;28;20222;-67
2023/05/17 04:15:46;;;;;;;9.40;3.05;;;;;;;;;;5071913;28;20023;-66
2023/05/17 04:18:11;;;;;;;9.88;2.70;;;;;;;;;;5071314;28;20031;-67
2023/05/17 04:20:36;;;;;;;12.93;3.08;;;;;;;;;;5071013;28;20020;-67
2023/05/17 04:23:02;;;;;;;11.50;3.35;;;;;;;;;;5070057;28;20086;-67
2023/05/17 04:25:27;;;;;;;10.60;3.10;;;;;;;;;;5060826;28;20031;-66
2023/05/17 04:27:53;;;;;;;13.25;2.75;;;;;;;;;;5070136;28;20037;-65
2023/05/17 04:30:20;;;;;;;13.05;2.70;;;;;;;;;;5069795;28;20028;-65
2023/05/17 04:32:45;;;;;;;10.27;3.03;;;;;;;;;;5072166;28;20054;-67
2023/05/17 04:35:11;;;;;;;14.52;3.42;;;;;;;;;;5069819;28;20028;-67
2023/05/17 04:37:38;;;;;;;20.77;3.70;;;;;;;;;;5069452;28;20016;-66
2023/05/17 04:40:04;;;;;;;9.10;2.47;;;;;;;;;;5069925;28;20066;-66
2023/05/17 04:42:29;;;;;;;9.10;2.80;;;;;;;;;;5072291;28;20025;-67
2023/05/17 04:44:56;;;;;;;14.45;3.17;;;;;;;;;;5077762;28;20104;-66
2023/05/17 04:47:22;;;;;;;11.57;2.90;;;;;;;;;;5070378;28;20028;-66
2023/05/17 04:49:47;;;;;;;10.45;3.03;;;;;;;;;;5078471;28;20016;-66
2023/05/17 04:52:13;;;;;;;11.68;2.55;;;;;;;;;;5068951;28;20056;-65
2023/05/17 04:54:38;;;;;;;10.30;3.17;;;;;;;;;;5066421;28;20052;-66
2023/05/17 04:57:03;;;;;;;11.77;2.85;;;;;;;;;;5071142;28;20015;-67
2023/05/17 04:59:28;;;;;;;12.00;2.63;;;;;;;;;;5069194;28;20070;-64
2023/05/17 05:01:55;;;;;;;7.90;2.90;;;;;;;;;;5080272;28;20028;-66
2023/05/17 05:04:20;;;;;;;12.15;3.10;;;;;;;;;;5068922;28;20028;-66
2023/05/17 05:06:46;;;;;;;18.35;2.83;;;;;;;;;;5069698;28;20612;-66
2023/05/17 05:09:11;;;;;;;13.20;3.10;;;;;;;;;;5069355;28;20439;-67
2023/05/17 05:11:36;;;;;;;14.23;2.45;;;;;;;;;;5069381;28;20160;-67
2023/05/17 05:14:01;;;;;;;8.25;2.80;;;;;;;;;;5079997;28;20382;-68
2023/05/17 05:16:26;;;;;;;9.70;3.05;;;;;;;;;;5052002;28;20055;-67
2023/05/17 05:18:52;;;;;;;13.32;2.95;;;;;;;;;;5070726;28;20024;-66
2023/05/17 05:21:17;;;;;;;11.48;2.92;;;;;;;;;;5069199;28;20024;-66
2023/05/17 05:23:42;;;;;;;11.43;3.08;;;;;;;;;;5068147;28;20513;-67
2023/05/17 05:26:08;;;;;;;17.48;3.85;;;;;;;;;;5067434;28;20016;-66
2023/05/17 05:28:33;;;;;;;15.10;3.33;;;;;;;;;;5074405;28;20012;-68
2023/05/17 05:30:59;;;;;;;11.65;2.65;;;;;;;;;;5076981;28;20075;-70
2023/05/17 05:33:24;;;;;;;12.52;3.10;;;;;;;;;;5076815;28;20090;-69
2023/05/17 05:35:49;;;;;;;14.90;3.70;;;;;;;;;;5068907;28;20028;-66
2023/05/17 05:38:14;;;;;;;9.90;3.17;;;;;;;;;;5072487;28;20545;-66
2023/05/17 05:40:41;;;;;;;16.88;3.55;;;;;;;;;;5081664;28;20027;-68
2023/05/17 05:43:09;;;;;;;14.15;3.13;;;;;;;;;;5080484;28;20045;-70
2023/05/17 05:45:34;;;;;;;9.18;3.03;;;;;;;;;;5076558;28;20024;-67
2023/05/17 05:47:59;;;;;;;11.35;3.17;;;;;;;;;;5069783;28;20077;-67
2023/05/17 05:50:25;;;;;;;15.50;3.40;;;;;;;;;;5069102;28;20020;-69
2023/05/17 05:52:50;;;;;;;16.58;3.58;;;;;;;;;;5068983;28;20023;-68
2023/05/17 05:55:15;;;;;;;14.30;3.80;;;;;;;;;;5067221;28;20021;-67
2023/05/17 05:57:40;;;;;;;13.25;3.47;;;;;;;;;;5068829;28;20047;-66
2023/05/17 06:00:06;;;;;;;19.65;3.63;;;;;;;;;;5069265;28;20387;-67
2023/05/17 06:02:32;;;;;;;15.93;3.35;;;;;;;;;;5068479;28;20051;-68
2023/05/17 06:04:57;;;;;;;8.55;3.38;;;;;;;;;;5067944;28;20027;-66
2023/05/17 06:07:22;;;;;;;14.43;4.03;;;;;;;;;;5069205;28;20426;-68
2023/05/17 06:09:47;;;;;;;18.38;3.35;;;;;;;;;;5068680;28;20028;-67
2023/05/17 06:12:13;;;;;;;18.80;4.03;;;;;;;;;;5069416;28;20049;-67
2023/05/17 06:14:38;;;;;;;13.80;3.72;;;;;;;;;;5068349;28;20024;-69
2023/05/17 06:17:03;;;;;;;16.08;3.67;;;;;;;;;;5069391;28;20524;-69
2023/05/17 06:19:28;;;;;;;13.98;3.78;;;;;;;;;;5069171;28;20071;-68
2023/05/17 06:21:54;;;;;;;11.30;3.22;;;;;;;;;;5069128;28;20023;-67
2023/05/17 06:24:19;;;;;;;11.70;3.50;;;;;;;;;;5067858;28;20427;-65
2023/05/17 06:26:46;;;;;;;16.92;4.00;;;;;;;;;;5068954;28;20070;-67
2023/05/17 06:29:11;;;;;;;16.50;3.45;;;;;;;;;;5070691;28;20017;-69
2023/05/17 06:31:36;;;;;;;13.15;3.63;;;;;;;;;;5069057;28;20028;-69
2023/05/17 06:34:01;;;;;;;14.25;4.00;;;;;;;;;;5067545;28;20110;-67
2023/05/17 06:36:26;;;;;;;13.98;3.40;;;;;;;;;;5069281;28;20036;-67
2023/05/17 06:38:52;;;;;;;18.48;3.63;;;;;;;;;;5068478;28;20016;-68
2023/05/17 06:41:17;;;;;;;13.60;3.35;;;;;;;;;;5068225;28;20067;-68
2023/05/17 06:43:44;;;;;;;23.17;4.47;;;;;;;;;;5073667;28;20017;-67
2023/05/17 06:46:09;;;;;;;15.45;3.45;;;;;;;;;;5079205;28;20031;-65
2023/05/17 06:48:34;;;;;;;22.10;4.78;;;;;;;;;;5068735;28;20016;-65
2023/05/17 06:50:59;;;;;;;18.63;3.78;;;;;;;;;;5068362;28;20105;-72
2023/05/17 06:53:26;;;;;;;16.55;2.95;;;;;;;;;;5068024;28;20039;-68
2023/05/17 06:55:51;;;;;;;13.20;3.45;;;;;;;;;;5068392;28;20418;-68
2023/05/17 06:58:16;;;;;;;13.40;3.42;;;;;;;;;;5068775;28;20012;-67
2023/05/17 07:00:41;;;;;;;16.33;3.45;;;;;;;;;;5056507;28;20224;-67
2023/05/17 07:03:07;;;;;;;19.73;3.45;;;;;;;;;;5054858;22;20235;-64
2023/05/17 07:05:32;;;;;;;16.60;3.30;;;;;;;;;;5018599;28;20021;-64
2023/05/17 07:07:58;;;;;;;14.18;2.80;;;;;;;;;;5038968;28;20029;-62
2023/05/17 07:10:23;;;;;;;14.13;3.83;;;;;;;;;;5052056;28;20029;-64
2023/05/17 07:12:48;;;;;;;27.95;4.43;;;;;;;;;;5036540;28;20108;-65
2023/05/17 07:15:13;;;;;;;14.85;4.05;;;;;;;;;;5031493;28;20017;-64
2023/05/17 07:17:39;;;;;;;15.75;3.65;;;;;;;;;;5045769;28;20036;-63
2023/05/17 07:20:04;;;;;;;12.80;3.08;;;;;;;;;;5032576;28;20020;-63
2023/05/17 07:22:30;;;;;;;13.15;3.00;;;;;;;;;;5032061;28;20009;-64
2023/05/17 07:24:55;;;;;;;23.02;3.92;;;;;;;;;;5031037;28;20032;-63
2023/05/17 07:27:20;;;;;;;15.90;3.92;;;;;;;;;;5045425;28;20747;-65
2023/05/17 07:29:45;;;;;;;17.10;2.97;;;;;;;;;;5040186;28;20538;-65
2023/05/17 07:32:11;;;;;;;18.05;3.22;;;;;;;;;;5038683;28;20463;-65
2023/05/17 07:34:36;;;;;;;15.75;3.67;;;;;;;;;;5031340;28;20025;-64
2023/05/17 07:37:01;;;;;;;12.32;2.67;;;;;;;;;;5031646;28;20108;-62
2023/05/17 07:39:27;;;;;;;18.80;2.65;;;;;;;;;;5031628;28;20045;-64
2023/05/17 07:41:52;;;;;;;21.35;3.08;;;;;;;;;;5032925;28;20071;-64
2023/05/17 07:44:17;;;;;;;15.50;2.72;;;;;;;;;;5041683;28;20407;-64
2023/05/17 07:46:42;;;;;;;19.40;2.42;;;;;;;;;;5050697;28;20026;-62
2023/05/17 07:49:08;;;;;;;13.73;2.67;;;;;;;;;;5039167;28;20024;-63
2023/05/17 07:51:34;;;;;;;22.17;2.50;;;;;;;;;;5037238;28;20025;-64
2023/05/17 07:54:01;;;;;;;14.52;2.88;;;;;;;;;;5030017;28;20021;-63
2023/05/17 07:56:27;;;;;;;14.57;2.85;;;;;;;;;;5013692;28;20029;-65
2023/05/17 07:58:52;;;;;;;14.80;3.00;;;;;;;;;;5039365;28;20201;-64
2023/05/17 08:01:17;;;;;;;8.80;2.50;;;;;;;;;;5037485;28;20434;-66
2023/05/17 08:03:46;;;;;;;17.02;2.90;;;;;;;;;;5036391;28;20112;-62
2023/05/17 08:06:12;;;;;;;13.48;3.00;;;;;;;;;;5032312;28;20028;-64
2023/05/17 08:08:37;;;;;;;19.42;2.33;;;;;;;;;;5043542;28;20017;-64
2023/05/17 08:11:02;;;;;;;11.07;2.25;;;;;;;;;;5031677;28;20087;-62
2023/05/17 08:13:28;;;;;;;14.32;2.42;;;;;;;;;;5031062;28;20026;-64
2023/05/17 08:15:53;;;;;;;12.48;2.13;;;;;;;;;;5031746;28;20086;-63
2023/05/17 08:18:18;;;;;;;12.43;2.55;;;;;;;;;;5043399;28;20063;-64
2023/05/17 08:20:45;;;;;;;12.55;2.63;;;;;;;;;;5032110;28;20026;-64
2023/05/17 08:23:10;;;;;;;6.70;1.92;;;;;;;;;;5039288;28;20017;-65
2023/05/17 08:25:35;;;;;;;7.45;1.70;;;;;;;;;;5037032;28;20205;-63
2023/05/17 08:28:01;;;;;;;13.27;2.65;;;;;;;;;;5032177;28;20113;-63
2023/05/17 08:30:26;;;;;;;15.93;3.08;;;;;;;;;;5050798;28;20118;-66
2023/05/17 08:32:51;;;;;;;13.57;3.40;;;;;;;;;;5033424;28;20033;-61
2023/05/17 08:35:17;;;;;;;15.02;3.22;;;;;;;;;;5030421;28;20029;-67
2023/05/17 08:37:42;;;;;;;12.77;2.35;;;;;;;;;;5038013;28;20024;-63
2023/05/17 08:40:08;;;;;;;16.20;3.25;;;;;;;;;;5037456;28;20713;-64
2023/05/17 08:42:33;;;;;;;8.55;2.45;;;;;;;;;;5037749;28;20116;-64
2023/05/17 08:44:59;;;;;;;15.88;2.60;;;;;;;;;;5050263;28;20025;-61
2023/05/17 08:47:24;;;;;;;6.43;2.38;;;;;;;;;;5036090;28;20048;-63
2023/05/17 08:49:53;;;;;;;13.73;2.55;;;;;;;;;;5037232;28;20045;-62
2023/05/17 08:52:19;;;;;;;16.42;2.08;;;;;;;;;;5030221;28;20013;-63
2023/05/17 08:54:44;;;;;;;11.68;2.50;;;;;;;;;;5043320;28;20035;-62
2023/05/17 08:57:10;;;;;;;15.73;3.05;;;;;;;;;;5044145;28;20051;-63
2023/05/17 08:59:37;;;;;;;10.50;2.65;;;;;;;;;;5045590;28;20535;-65
2023/05/17 09:02:03;;;;;;;13.82;2.22;;;;;;;;;;5036773;28;20083;-64
2023/05/17 09:04:32;;;;;;;9.25;2.15;;;;;;;;;;5030437;28;20091;-62
2023/05/17 09:06:57;;;;;;;18.35;3.60;;;;;;;;;;5030593;28;20029;-64
2023/05/17 09:09:24;;;;;;;13.52;2.85;;;;;;;;;;5030648;28;20066;-64
2023/05/17 09:11:49;;;;;;;12.57;2.40;;;;;;;;;;5030642;28;20018;-61
2023/05/17 09:14:16;;;;;;;14.75;3.17;;;;;;;;;;5042979;28;20027;-65
2023/05/17 09:16:42;;;;;;;12.55;2.10;;;;;;;;;;5037868;28;20016;-63
2023/05/17 09:19:12;;;;;;;10.63;2.97;;;;;;;;;;5036538;28;20052;-64
2023/05/17 09:21:37;;;;;;;14.57;2.63;;;;;;;;;;5042846;28;20494;-64
2023/05/17 09:24:03;;;;;;;10.43;1.95;;;;;;;;;;5029031;28;20031;-65
2023/05/17 09:26:36;;;;;;;9.55;2.22;;;;;;;;;;5030671;28;20100;-65
2023/05/17 09:29:06;;;;;;;19.75;3.75;;;;;;;;;;5036928;28;20541;-64
2023/05/17 09:31:32;;;;;;;16.20;2.75;;;;;;;;;;5030933;28;20021;-62
2023/05/17 09:33:58;;;;;;;15.18;3.88;;;;;;;;;;5042557;28;20497;-64
2023/05/17 09:36:23;;;;;;;11.23;2.72;;;;;;;;;;5039652;28;20029;-62
2023/05/17 09:38:55;;;;;;;11.82;3.03;;;;;;;;;;5034431;28;20041;-64
2023/05/17 09:41:21;;;;;;;13.40;3.63;;;;;;;;;;5030102;28;20018;-64
2023/05/17 09:43:47;;;;;;;13.60;2.85;;;;;;;;;;5022905;28;20435;-64
2023/05/17 09:46:14;;;;;;;13.65;2.33;;;;;;;;;;5039795;28;20025;-63
2023/05/17 09:48:39;;;;;;;9.25;2.30;;;;;;;;;;5029931;28;20017;-64
2023/05/17 09:51:04;;;;;;;7.57;1.77;;;;;;;;;;5029841;28;20343;-63
2023/05/17 09:53:38;;;;;;;8.43;1.92;;;;;;;;;;5041771;28;20029;-62
2023/05/17 09:56:04;;;;;;;13.32;1.65;;;;;;;;;;5040958;28;20078;-62
2023/05/17 09:58:35;;;;;;;12.45;2.42;;;;;;;;;;5032243;28;20018;-64
2023/05/17 10:01:02;;;;;;;12.10;1.85;;;;;;;;;;5041358;28;20486;-64
2023/05/17 10:03:35;;;;;;;17.17;2.83;;;;;;;;;;5030663;28;20041;-65
2023/05/17 10:06:04;;;;;;;11.73;3.72;;;;;;;;;;5011684;28;20040;-64
2023/05/17 10:08:32;;;;;;;15.07;2.40;;;;;;;;;;5028722;28;20360;-63
2023/05/17 10:10:59;;;;;;;10.60;2.30;;;;;;;;;;5029418;28;20030;-60
2023/05/17 10:13:28;;;;;;;11.90;2.03;;;;;;;;;;5032647;28;20063;-63
2023/05/17 10:15:54;;;;;;;18.50;2.13;;;;;;;;;;5036570;28;20053;-64
2023/05/17 10:18:19;;;;;;;14.50;2.05;;;;;;;;;;4999046;28;20056;-63
2023/05/17 10:20:47;;;;;;;10.93;2.03;;;;;;;;;;5029867;28;20014;-63
2023/05/17 10:23:13;;;;;;;9.10;2.22;;;;;;;;;;5015486;28;20577;-63
2023/05/17 10:25:39;;;;;;;8.15;1.60;;;;;;;;;;5028857;28;20152;-62
2023/05/17 10:28:06;;;;;;;7.72;1.42;;;;;;;;;;5043591;28;20013;-63
2023/05/17 10:30:32;;;;;;;8.25;1.70;;;;;;;;;;5035989;28;20083;-63
2023/05/17 10:32:58;;;;;;;18.75;2.40;;;;;;;;;;5028707;28;20616;-64
2023/05/17 10:35:24;;;;;;;13.90;2.15;;;;;;;;;;5028874;28;20072;-65
2023/05/17 10:37:50;;;;;;;8.23;1.67;;;;;;;;;;5028603;28;20013;-64
2023/05/17 10:40:16;;;;;;;9.80;1.80;;;;;;;;;;5028544;28;20043;-63
2023/05/17 10:42:43;;;;;;;10.88;2.88;;;;;;;;;;5012835;28;20018;-63
2023/05/17 10:45:10;;;;;;;7.68;1.83;;;;;;;;;;5048766;28;20440;-63
2023/05/17 10:47:40;;;;;;;11.18;2.05;;;;;;;;;;5032966;28;20025;-59
2023/05/17 10:50:10;;;;;;;6.97;1.80;;;;;;;;;;5033452;28;20017;-64
2023/05/17 10:52:37;;;;;;;8.80;1.80;;;;;;;;;;5014776;28;20025;-65
2023/05/17 10:55:02;;;;;;;12.15;3.05;;;;;;;;;;5034131;28;20035;-65
2023/05/17 10:57:31;;;;;;;10.90;2.42;;;;;;;;;;5042772;28;20341;-66
2023/05/17 10:59:58;;;;;;;11.93;2.28;;;;;;;;;;5045515;28;20634;-61
2023/05/17 11:02:24;;;;;;;8.80;1.67;;;;;;;;;;5014697;28;20075;-64
2023/05/17 11:04:54;;;;;;;14.80;2.38;;;;;;;;;;5031709;28;20017;-62
2023/05/17 11:07:23;;;;;;;9.82;1.90;;;;;;;;;;5042641;28;20044;-61
2023/05/17 11:09:49;;;;;;;11.20;1.98;;;;;;;;;;5034831;28;20025;-63
2023/05/17 11:12:15;;;;;;;9.02;1.77;;;;;;;;;;5032426;28;20021;-65
2023/05/17 11:14:43;;;;;;;17.05;2.20;;;;;;;;;;5038976;28;20541;-62
2023/05/17 11:17:13;;;;;;;14.88;2.85;;;;;;;;;;5044131;28;20028;-64
2023/05/17 11:19:47;;;;;;;10.90;1.48;;;;;;;;;;5039524;28;20021;-60
2023/05/17 11:22:14;;;;;;;11.27;2.08;;;;;;;;;;5039937;28;20106;-61
2023/05/17 11:24:42;;;;;;;9.23;2.15;;;;;;;;;;5031286;28;20029;-63
2023/05/17 11:27:08;;;;;;;10.75;1.92;;;;;;;;;;5032716;28;20025;-64
2023/05/17 11:29:33;;;;;;;8.85;1.40;;;;;;;;;;5039001;28;20041;-63
2023/05/17 11:32:04;;;;;;;11.23;2.00;;;;;;;;;;5044805;28;20017;-64
2023/05/17 11:34:31;;;;;;;16.88;2.42;;;;;;;;;;5018911;28;20036;-65
2023/05/17 11:36:57;;;;;;;9.30;1.70;;;;;;;;;;5032213;28;20067;-63
2023/05/17 11:39:23;;;;;;;9.52;2.20;;;;;;;;;;5032398;28;20555;-63
2023/05/17 11:41:49;;;;;;;11.80;1.65;;;;;;;;;;5033732;28;20493;-65
2023/05/17 11:44:15;;;;;;;9.65;1.70;;;;;;;;;;5040024;28;20044;-67
2023/05/17 11:46:41;;;;;;;8.85;2.05;;;;;;;;;;5033376;28;20009;-63
2023/05/17 11:49:07;;;;;;;11.90;2.00;;;;;;;;;;5032113;28;20022;-64
2023/05/17 11:51:32;;;;;;;10.90;1.88;;;;;;;;;;5032044;28;20028;-65
2023/05/17 11:53:58;;;;;;;9.57;1.60;;;;;;;;;;5030393;28;20024;-64
2023/05/17 11:56:23;;;;;;;8.20;1.95;;;;;;;;;;5031414;28;20025;-64
2023/05/17 11:58:52;;;;;;;12.70;2.35;;;;;;;;;;5037108;28;20024;-64
2023/05/17 12:01:17;;;;;;;;;;;;;;;;;;5038054;28;20409;-64
2023/05/17 12:03:43;;;;;;;11.00;2.03;;;;;;;;;;5031211;28;19909;-62
2023/05/17 12:06:11;;;;;;;12.15;2.22;;;;;;;;;;5031743;28;20396;-62
2023/05/17 12:08:37;;;;;;;;;;;;;;;;;;5031756;28;20024;-65
2023/05/17 12:11:03;;;;;;;11.52;1.70;;;;;;;;;;5031780;28;19905;-64
2023/05/17 12:13:29;;;;;;;10.90;1.90;;;;;;;;;;5030897;28;20695;-64
2023/05/17 12:16:02;;;;;;;7.25;1.40;;;;;;;;;;5036097;28;20025;-63
2023/05/17 12:18:37;;;;;;;7.63;1.70;;;;;;;;;;5043290;28;20010;-65
2023/05/17 12:21:02;;;;;;;10.07;1.80;;;;;;;;;;5031342;28;20018;-63
2023/05/17 12:23:28;;;;;;;8.60;1.83;;;;;;;;;;5040125;28;20021;-63
2023/05/17 12:26:04;;;;;;;8.00;1.38;;;;;;;;;;5036851;28;20079;-65
2023/05/17 12:28:29;;;;;;;21.38;3.53;;;;;;;;;;5046421;28;20053;-62
2023/05/17 12:31:01;;;;;;;10.85;2.10;;;;;;;;;;5033442;28;20065;-63
2023/05/17 12:33:27;;;;;;;10.45;2.13;;;;;;;;;;5031082;28;20510;-61
2023/05/17 12:35:52;;;;;;;10.80;1.70;;;;;;;;;;5044159;28;20049;-63
2023/05/17 12:38:18;;;;;;;11.82;2.30;;;;;;;;;;5030684;28;20467;-63
2023/05/17 12:40:43;;;;;;;6.60;1.73;;;;;;;;;;5030601;28;20028;-63
2023/05/17 12:43:08;;;;;;;9.13;1.65;;;;;;;;;;5031702;28;20028;-61
2023/05/17 12:45:34;;;;;;;11.93;1.88;;;;;;;;;;5044406;28;20029;-61
2023/05/17 12:47:59;;;;;;;5.15;1.27;;;;;;;;;;5039416;28;20037;-63
2023/05/17 12:50:28;;;;;;;11.43;1.95;;;;;;;;;;5043583;28;20018;-64
2023/05/17 12:52:54;;;;;;;11.35;2.75;;;;;;;;;;5029973;28;20025;-61
2023/05/17 12:55:19;;;;;;;13.52;2.03;;;;;;;;;;5029452;28;20033;-63
2023/05/17 12:57:53;;;;;;;12.85;2.45;;;;;;;;;;5012679;28;20018;-65
2023/05/17 13:00:19;;;;;;;6.68;1.45;;;;;;;;;;5016517;28;20132;-63
2023/05/17 13:02:45;;;;;;;16.02;2.13;;;;;;;;;;5056574;22;20143;-69
2023/05/17 13:05:14;;;;;;;6.57;1.92;;;;;;;;;;5034207;28;20028;-66
2023/05/17 13:07:39;;;;;;;11.45;1.88;;;;;;;;;;5036117;28;20556;-67
2023/05/17 13:10:05;;;;;;;11.80;2.28;;;;;;;;;;5031572;28;20041;-67
2023/05/17 13:12:30;;;;;;;7.03;1.92;;;;;;;;;;5048964;28;20470;-65
2023/05/17 13:14:55;;;;;;;11.48;2.08;;;;;;;;;;5036247;28;20051;-67
2023/05/17 13:17:25;;;;;;;11.40;1.73;;;;;;;;;;5047889;28;20042;-67
2023/05/17 13:19:51;;;;;;;20.23;4.10;;;;;;;;;;5031766;28;20013;-65
2023/05/17 13:22:16;;;;;;;12.02;2.75;;;;;;;;;;5049596;28;20025;-67
2023/05/17 13:24:43;;;;;;;16.08;2.22;;;;;;;;;;5048728;28;20027;-68
2023/05/17 13:27:08;;;;;;;11.15;1.92;;;;;;;;;;5050395;28;20025;-71
2023/05/17 13:29:35;;;;;;;13.55;1.80;;;;;;;;;;5055822;28;20108;-68
2023/05/17 13:32:00;;;;;;;11.15;2.30;;;;;;;;;;5049242;28;20032;-66
2023/05/17 13:34:26;;;;;;;6.60;1.98;;;;;;;;;;5036097;28;20020;-68
2023/05/17 13:36:51;;;;;;;8.50;2.15;;;;;;;;;;5049264;28;20044;-70
2023/05/17 13:39:16;;;;;;;17.65;2.00;;;;;;;;;;5048884;28;20059;-68
2023/05/17 13:41:42;;;;;;;16.17;2.50;;;;;;;;;;5051016;28;20045;-67
2023/05/17 13:44:07;;;;;;;11.25;1.95;;;;;;;;;;5055761;28;20021;-68
2023/05/17 13:46:32;;;;;;;11.02;1.83;;;;;;;;;;5056169;28;20051;-70
2023/05/17 13:48:58;;;;;;;10.75;1.80;;;;;;;;;;5042371;28;20035;-69
2023/05/17 13:51:24;;;;;;;16.30;2.08;;;;;;;;;;5042794;28;20048;-70
2023/05/17 13:53:50;;;;;;;7.68;2.28;;;;;;;;;;5035815;28;20124;-67
2023/05/17 13:56:15;;;;;;;8.98;1.83;;;;;;;;;;5049245;28;20036;-66
2023/05/17 13:58:40;;;;;;;5.60;1.50;;;;;;;;;;5048566;28;20070;-68
2023/05/17 14:01:06;;;;;;;11.70;1.80;;;;;;;;;;5036454;28;20036;-69
2023/05/17 14:03:31;;;;;;;8.85;1.65;;;;;;;;;;5046599;28;20029;-71
2023/05/17 14:05:57;;;;;;;11.75;2.50;;;;;;;;;;5048465;28;20033;-64
2023/05/17 14:08:22;;;;;;;12.30;1.90;;;;;;;;;;5048261;28;20066;-68
2023/05/17 14:10:47;;;;;;;6.25;1.50;;;;;;;;;;5048514;28;20020;-68
2023/05/17 14:13:12;;;;;;;10.35;2.05;;;;;;;;;;5042365;28;20147;-68
2023/05/17 14:15:38;;;;;;;12.80;2.22;;;;;;;;;;5037042;28;20053;-67
2023/05/17 14:18:04;;;;;;;8.77;1.90;;;;;;;;;;5042421;28;20104;-66
2023/05/17 14:20:30;;;;;;;14.30;2.10;;;;;;;;;;5052782;28;20032;-68
2023/05/17 14:22:55;;;;;;;11.38;2.28;;;;;;;;;;5035835;28;20025;-68
2023/05/17 14:25:21;;;;;;;12.63;2.47;;;;;;;;;;5051252;28;20025;-69
2023/05/17 14:27:46;;;;;;;13.15;2.20;;;;;;;;;;5052442;28;20514;-67
2023/05/17 14:30:12;;;;;;;11.38;2.20;;;;;;;;;;5058221;28;20478;-66